Highland-University Park's Hourly Summary for Tuesday, April 18, 2017
Hour Temp
(f)
RH
(%)
Solar Rad.
(MJ/m2)
Rainfall
(in)
Wind
(mph)
4/18/2017 12:00 AM 63 95 0 0 1.39
4/18/2017 1:00 AM 64 95 0 0 0.49
4/18/2017 2:00 AM 63 97 0 0 0.25
4/18/2017 3:00 AM 63 97 0 0 0
4/18/2017 4:00 AM 63 98 0 0 0.05
4/18/2017 5:00 AM 62 98 0 0 0.06
4/18/2017 6:00 AM 63 99 0 0 0.16
4/18/2017 7:00 AM 62 99 0 0 0
4/18/2017 8:00 AM 62 99 0.07 0 0
4/18/2017 9:00 AM 64 91 0.55 0 0.18
4/18/2017 10:00 AM 69 75 1.58 0 1.57
4/18/2017 11:00 AM 72 67 2.06 0 2.41
4/18/2017 12:00 PM 75 60 2.8 0 2.39
4/18/2017 1:00 PM 78 56 2.98 0 1.97
4/18/2017 2:00 PM 79 54 2.88 0 2.58
4/18/2017 3:00 PM 79 55 2.63 0 2.91
4/18/2017 4:00 PM 79 52 2.08 0 2.29
4/18/2017 5:00 PM 80 50 2.19 0 2.69
4/18/2017 6:00 PM 80 50 1.46 0 2.62
4/18/2017 7:00 PM 79 50 0.68 0 3.02
4/18/2017 8:00 PM 73 58 0.1 0 3.74
4/18/2017 9:00 PM 70 73 0 0 2.33
4/18/2017 10:00 PM 69 79 0 0 2.03
4/18/2017 11:00 PM 68 80 0 0 1.78
Data Summary 69 76 22.06 0.00 1.54